sensor_id;sensor_type;location;lat;lon;timestamp;P1;durP1;ratioP1;P2;durP2;ratioP2
19260;SDS011;9764;48.114;11.670;2023-05-23T00:00:32;4.85;;;4.35;;
19260;SDS011;9764;48.114;11.670;2023-05-23T00:03:02;4.22;;;3.83;;
19260;SDS011;9764;48.114;11.670;2023-05-23T00:05:30;3.75;;;3.45;;
19260;SDS011;9764;48.114;11.670;2023-05-23T00:08:00;3.90;;;3.60;;
19260;SDS011;9764;48.114;11.670;2023-05-23T00:10:29;3.90;;;3.58;;
19260;SDS011;9764;48.114;11.670;2023-05-23T00:12:57;4.68;;;4.28;;
19260;SDS011;9764;48.114;11.670;2023-05-23T00:15:26;4.00;;;3.70;;
19260;SDS011;9764;48.114;11.670;2023-05-23T00:17:54;3.95;;;3.65;;
19260;SDS011;9764;48.114;11.670;2023-05-23T00:20:23;4.47;;;4.07;;
19260;SDS011;9764;48.114;11.670;2023-05-23T00:22:51;3.92;;;3.53;;
19260;SDS011;9764;48.114;11.670;2023-05-23T00:25:25;4.55;;;3.75;;
19260;SDS011;9764;48.114;11.670;2023-05-23T00:27:59;4.13;;;3.83;;
19260;SDS011;9764;48.114;11.670;2023-05-23T00:30:28;4.20;;;3.80;;
19260;SDS011;9764;48.114;11.670;2023-05-23T00:32:57;4.28;;;3.88;;
19260;SDS011;9764;48.114;11.670;2023-05-23T00:35:26;4.03;;;3.63;;
19260;SDS011;9764;48.114;11.670;2023-05-23T00:37:55;4.22;;;3.83;;
19260;SDS011;9764;48.114;11.670;2023-05-23T00:40:23;3.67;;;3.38;;
19260;SDS011;9764;48.114;11.670;2023-05-23T00:42:53;4.75;;;4.07;;
19260;SDS011;9764;48.114;11.670;2023-05-23T00:45:22;4.15;;;3.75;;
19260;SDS011;9764;48.114;11.670;2023-05-23T00:47:50;4.38;;;3.70;;
19260;SDS011;9764;48.114;11.670;2023-05-23T00:50:20;3.42;;;3.13;;
19260;SDS011;9764;48.114;11.670;2023-05-23T00:52:49;4.38;;;3.55;;
19260;SDS011;9764;48.114;11.670;2023-05-23T00:55:17;4.60;;;4.22;;
19260;SDS011;9764;48.114;11.670;2023-05-23T00:57:47;4.15;;;3.75;;
19260;SDS011;9764;48.114;11.670;2023-05-23T01:00:16;3.70;;;3.40;;
19260;SDS011;9764;48.114;11.670;2023-05-23T01:02:46;3.53;;;3.22;;
19260;SDS011;9764;48.114;11.670;2023-05-23T01:05:17;4.03;;;3.72;;
19260;SDS011;9764;48.114;11.670;2023-05-23T01:07:48;4.05;;;3.75;;
19260;SDS011;9764;48.114;11.670;2023-05-23T01:10:18;3.90;;;3.60;;
19260;SDS011;9764;48.114;11.670;2023-05-23T01:12:53;4.15;;;3.75;;
19260;SDS011;9764;48.114;11.670;2023-05-23T01:15:28;3.90;;;3.60;;
19260;SDS011;9764;48.114;11.670;2023-05-23T01:18:06;4.00;;;3.67;;
19260;SDS011;9764;48.114;11.670;2023-05-23T01:20:37;4.10;;;3.80;;
19260;SDS011;9764;48.114;11.670;2023-05-23T01:23:23;3.92;;;3.63;;
19260;SDS011;9764;48.114;11.670;2023-05-23T01:26:31;4.10;;;3.72;;
19260;SDS011;9764;48.114;11.670;2023-05-23T01:29:07;4.20;;;3.80;;
19260;SDS011;9764;48.114;11.670;2023-05-23T01:31:41;3.85;;;3.55;;
19260;SDS011;9764;48.114;11.670;2023-05-23T01:34:11;4.03;;;3.65;;
19260;SDS011;9764;48.114;11.670;2023-05-23T01:36:41;4.03;;;3.65;;
19260;SDS011;9764;48.114;11.670;2023-05-23T01:39:10;3.90;;;3.60;;
19260;SDS011;9764;48.114;11.670;2023-05-23T01:41:39;3.95;;;3.65;;
19260;SDS011;9764;48.114;11.670;2023-05-23T01:44:08;3.95;;;3.65;;
19260;SDS011;9764;48.114;11.670;2023-05-23T01:46:37;3.80;;;3.40;;
19260;SDS011;9764;48.114;11.670;2023-05-23T01:49:07;3.85;;;3.55;;
19260;SDS011;9764;48.114;11.670;2023-05-23T01:51:38;3.65;;;3.35;;
19260;SDS011;9764;48.114;11.670;2023-05-23T01:54:07;3.97;;;3.63;;
19260;SDS011;9764;48.114;11.670;2023-05-23T01:56:36;4.47;;;3.40;;
19260;SDS011;9764;48.114;11.670;2023-05-23T01:59:05;3.92;;;3.55;;
19260;SDS011;9764;48.114;11.670;2023-05-23T02:01:35;4.15;;;3.70;;
19260;SDS011;9764;48.114;11.670;2023-05-23T02:04:05;3.95;;;3.58;;
19260;SDS011;9764;48.114;11.670;2023-05-23T02:06:33;4.10;;;3.80;;
19260;SDS011;9764;48.114;11.670;2023-05-23T02:09:02;3.63;;;3.35;;
19260;SDS011;9764;48.114;11.670;2023-05-23T02:11:30;3.65;;;3.35;;
19260;SDS011;9764;48.114;11.670;2023-05-23T02:13:59;4.00;;;3.70;;
19260;SDS011;9764;48.114;11.670;2023-05-23T02:16:27;3.80;;;3.50;;
19260;SDS011;9764;48.114;11.670;2023-05-23T02:18:57;4.00;;;3.70;;
19260;SDS011;9764;48.114;11.670;2023-05-23T02:21:27;3.90;;;3.60;;
19260;SDS011;9764;48.114;11.670;2023-05-23T02:24:02;3.92;;;3.33;;
19260;SDS011;9764;48.114;11.670;2023-05-23T02:26:30;3.80;;;3.50;;
19260;SDS011;9764;48.114;11.670;2023-05-23T02:28:58;3.58;;;3.28;;
19260;SDS011;9764;48.114;11.670;2023-05-23T02:31:27;3.70;;;3.40;;
19260;SDS011;9764;48.114;11.670;2023-05-23T02:33:57;3.80;;;3.50;;
19260;SDS011;9764;48.114;11.670;2023-05-23T02:36:26;4.13;;;3.75;;
19260;SDS011;9764;48.114;11.670;2023-05-23T02:38:54;3.83;;;3.53;;
19260;SDS011;9764;48.114;11.670;2023-05-23T02:41:23;4.20;;;3.58;;
19260;SDS011;9764;48.114;11.670;2023-05-23T02:43:51;4.30;;;3.70;;
19260;SDS011;9764;48.114;11.670;2023-05-23T02:46:20;4.07;;;3.78;;
19260;SDS011;9764;48.114;11.670;2023-05-23T02:48:48;4.22;;;3.92;;
19260;SDS011;9764;48.114;11.670;2023-05-23T02:51:18;3.92;;;3.55;;
19260;SDS011;9764;48.114;11.670;2023-05-23T02:53:47;4.32;;;3.92;;
19260;SDS011;9764;48.114;11.670;2023-05-23T02:56:15;4.03;;;3.72;;
19260;SDS011;9764;48.114;11.670;2023-05-23T02:58:44;3.97;;;3.67;;
19260;SDS011;9764;48.114;11.670;2023-05-23T03:01:12;3.50;;;3.20;;
19260;SDS011;9764;48.114;11.670;2023-05-23T03:03:41;4.05;;;3.65;;
19260;SDS011;9764;48.114;11.670;2023-05-23T03:06:10;3.58;;;3.28;;
19260;SDS011;9764;48.114;11.670;2023-05-23T03:08:44;4.03;;;3.63;;
19260;SDS011;9764;48.114;11.670;2023-05-23T03:11:12;3.67;;;3.38;;
19260;SDS011;9764;48.114;11.670;2023-05-23T03:13:42;3.60;;;3.35;;
19260;SDS011;9764;48.114;11.670;2023-05-23T03:16:11;3.60;;;3.30;;
19260;SDS011;9764;48.114;11.670;2023-05-23T03:18:39;3.70;;;3.35;;
19260;SDS011;9764;48.114;11.670;2023-05-23T03:21:08;3.72;;;3.42;;
19260;SDS011;9764;48.114;11.670;2023-05-23T03:23:36;4.10;;;3.80;;
19260;SDS011;9764;48.114;11.670;2023-05-23T03:26:06;3.90;;;3.50;;
19260;SDS011;9764;48.114;11.670;2023-05-23T03:28:34;3.88;;;3.58;;
19260;SDS011;9764;48.114;11.670;2023-05-23T03:31:02;4.40;;;3.60;;
19260;SDS011;9764;48.114;11.670;2023-05-23T03:33:30;4.18;;;3.50;;
19260;SDS011;9764;48.114;11.670;2023-05-23T03:35:58;3.58;;;3.28;;
19260;SDS011;9764;48.114;11.670;2023-05-23T03:38:27;3.78;;;3.50;;
19260;SDS011;9764;48.114;11.670;2023-05-23T03:40:55;4.22;;;3.70;;
19260;SDS011;9764;48.114;11.670;2023-05-23T03:43:25;4.18;;;3.83;;
19260;SDS011;9764;48.114;11.670;2023-05-23T03:45:53;4.18;;;3.78;;
19260;SDS011;9764;48.114;11.670;2023-05-23T03:48:22;4.30;;;3.90;;
19260;SDS011;9764;48.114;11.670;2023-05-23T03:50:50;3.70;;;3.33;;
19260;SDS011;9764;48.114;11.670;2023-05-23T03:53:18;3.90;;;3.53;;
19260;SDS011;9764;48.114;11.670;2023-05-23T03:55:47;4.30;;;3.90;;
19260;SDS011;9764;48.114;11.670;2023-05-23T03:58:15;4.00;;;3.70;;
19260;SDS011;9764;48.114;11.670;2023-05-23T04:00:48;3.95;;;3.55;;
19260;SDS011;9764;48.114;11.670;2023-05-23T04:03:16;4.03;;;3.58;;
19260;SDS011;9764;48.114;11.670;2023-05-23T04:05:45;3.50;;;3.30;;
19260;SDS011;9764;48.114;11.670;2023-05-23T04:08:13;3.55;;;3.25;;
19260;SDS011;9764;48.114;11.670;2023-05-23T04:10:43;3.70;;;3.40;;
19260;SDS011;9764;48.114;11.670;2023-05-23T04:13:11;3.90;;;3.60;;
19260;SDS011;9764;48.114;11.670;2023-05-23T04:15:40;3.47;;;3.20;;
19260;SDS011;9764;48.114;11.670;2023-05-23T04:18:12;4.07;;;3.60;;
19260;SDS011;9764;48.114;11.670;2023-05-23T04:20:43;4.90;;;3.58;;
19260;SDS011;9764;48.114;11.670;2023-05-23T04:23:11;3.72;;;3.08;;
19260;SDS011;9764;48.114;11.670;2023-05-23T04:25:42;3.55;;;3.25;;
19260;SDS011;9764;48.114;11.670;2023-05-23T04:28:18;3.60;;;3.30;;
19260;SDS011;9764;48.114;11.670;2023-05-23T04:30:46;4.03;;;3.65;;
19260;SDS011;9764;48.114;11.670;2023-05-23T04:33:20;3.78;;;3.47;;
19260;SDS011;9764;48.114;11.670;2023-05-23T04:35:49;3.80;;;3.40;;
19260;SDS011;9764;48.114;11.670;2023-05-23T04:38:18;4.88;;;3.40;;
19260;SDS011;9764;48.114;11.670;2023-05-23T04:40:47;3.78;;;3.30;;
19260;SDS011;9764;48.114;11.670;2023-05-23T04:43:25;4.07;;;3.72;;
19260;SDS011;9764;48.114;11.670;2023-05-23T04:46:10;4.13;;;3.83;;
19260;SDS011;9764;48.114;11.670;2023-05-23T04:48:43;4.03;;;3.60;;
19260;SDS011;9764;48.114;11.670;2023-05-23T04:51:11;3.78;;;3.47;;
19260;SDS011;9764;48.114;11.670;2023-05-23T04:53:47;3.40;;;3.10;;
19260;SDS011;9764;48.114;11.670;2023-05-23T04:56:16;3.67;;;3.38;;
19260;SDS011;9764;48.114;11.670;2023-05-23T04:58:47;3.67;;;3.35;;
19260;SDS011;9764;48.114;11.670;2023-05-23T05:01:16;3.33;;;3.03;;
19260;SDS011;9764;48.114;11.670;2023-05-23T05:03:45;3.63;;;3.33;;
19260;SDS011;9764;48.114;11.670;2023-05-23T05:06:14;3.78;;;3.47;;
19260;SDS011;9764;48.114;11.670;2023-05-23T05:08:43;3.58;;;3.28;;
19260;SDS011;9764;48.114;11.670;2023-05-23T05:11:11;3.83;;;3.28;;
19260;SDS011;9764;48.114;11.670;2023-05-23T05:13:40;4.10;;;3.72;;
19260;SDS011;9764;48.114;11.670;2023-05-23T05:16:09;3.47;;;3.17;;
19260;SDS011;9764;48.114;11.670;2023-05-23T05:18:37;4.05;;;3.28;;
19260;SDS011;9764;48.114;11.670;2023-05-23T05:21:07;3.90;;;3.60;;
19260;SDS011;9764;48.114;11.670;2023-05-23T05:23:36;3.80;;;3.50;;
19260;SDS011;9764;48.114;11.670;2023-05-23T05:26:06;3.70;;;3.40;;
19260;SDS011;9764;48.114;11.670;2023-05-23T05:28:35;4.07;;;3.35;;
19260;SDS011;9764;48.114;11.670;2023-05-23T05:31:03;4.72;;;3.65;;
19260;SDS011;9764;48.114;11.670;2023-05-23T05:33:34;3.95;;;3.55;;
19260;SDS011;9764;48.114;11.670;2023-05-23T05:36:12;3.78;;;3.47;;
19260;SDS011;9764;48.114;11.670;2023-05-23T05:38:42;4.07;;;3.67;;
19260;SDS011;9764;48.114;11.670;2023-05-23T05:41:10;3.78;;;3.47;;
19260;SDS011;9764;48.114;11.670;2023-05-23T05:43:44;4.03;;;3.63;;
19260;SDS011;9764;48.114;11.670;2023-05-23T05:46:13;4.13;;;3.72;;
19260;SDS011;9764;48.114;11.670;2023-05-23T05:48:42;3.53;;;3.22;;
19260;SDS011;9764;48.114;11.670;2023-05-23T05:51:13;3.90;;;3.60;;
19260;SDS011;9764;48.114;11.670;2023-05-23T05:53:42;3.75;;;3.45;;
19260;SDS011;9764;48.114;11.670;2023-05-23T05:56:10;4.10;;;3.60;;
19260;SDS011;9764;48.114;11.670;2023-05-23T05:58:39;4.25;;;3.80;;
19260;SDS011;9764;48.114;11.670;2023-05-23T06:01:10;3.78;;;3.47;;
19260;SDS011;9764;48.114;11.670;2023-05-23T06:03:41;4.05;;;3.42;;
19260;SDS011;9764;48.114;11.670;2023-05-23T06:06:10;4.10;;;3.70;;
19260;SDS011;9764;48.114;11.670;2023-05-23T06:08:40;4.07;;;3.67;;
19260;SDS011;9764;48.114;11.670;2023-05-23T06:11:13;3.70;;;3.40;;
19260;SDS011;9764;48.114;11.670;2023-05-23T06:13:41;3.63;;;3.33;;
19260;SDS011;9764;48.114;11.670;2023-05-23T06:16:09;3.65;;;3.35;;
19260;SDS011;9764;48.114;11.670;2023-05-23T06:18:38;3.47;;;3.17;;
19260;SDS011;9764;48.114;11.670;2023-05-23T06:21:07;4.13;;;3.72;;
19260;SDS011;9764;48.114;11.670;2023-05-23T06:23:36;4.30;;;3.90;;
19260;SDS011;9764;48.114;11.670;2023-05-23T06:26:06;4.15;;;3.75;;
19260;SDS011;9764;48.114;11.670;2023-05-23T06:28:37;4.63;;;3.50;;
19260;SDS011;9764;48.114;11.670;2023-05-23T06:31:06;4.25;;;3.85;;
19260;SDS011;9764;48.114;11.670;2023-05-23T06:33:35;4.30;;;3.53;;
19260;SDS011;9764;48.114;11.670;2023-05-23T06:36:04;3.80;;;3.50;;
19260;SDS011;9764;48.114;11.670;2023-05-23T06:38:32;4.32;;;3.80;;
19260;SDS011;9764;48.114;11.670;2023-05-23T06:41:01;4.10;;;3.58;;
19260;SDS011;9764;48.114;11.670;2023-05-23T06:43:34;4.03;;;3.63;;
19260;SDS011;9764;48.114;11.670;2023-05-23T06:46:35;5.45;;;4.07;;
19260;SDS011;9764;48.114;11.670;2023-05-23T06:49:06;4.30;;;3.90;;
19260;SDS011;9764;48.114;11.670;2023-05-23T06:51:42;4.07;;;3.63;;
19260;SDS011;9764;48.114;11.670;2023-05-23T06:54:11;3.92;;;3.53;;
19260;SDS011;9764;48.114;11.670;2023-05-23T06:56:39;4.82;;;3.88;;
19260;SDS011;9764;48.114;11.670;2023-05-23T06:59:09;3.60;;;3.30;;
19260;SDS011;9764;48.114;11.670;2023-05-23T07:01:38;3.90;;;3.60;;
19260;SDS011;9764;48.114;11.670;2023-05-23T07:04:07;4.10;;;3.70;;
19260;SDS011;9764;48.114;11.670;2023-05-23T07:06:35;4.68;;;4.28;;
19260;SDS011;9764;48.114;11.670;2023-05-23T07:09:06;4.28;;;3.65;;
19260;SDS011;9764;48.114;11.670;2023-05-23T07:11:38;4.45;;;4.13;;
19260;SDS011;9764;48.114;11.670;2023-05-23T07:14:07;3.70;;;3.40;;
19260;SDS011;9764;48.114;11.670;2023-05-23T07:16:42;4.07;;;3.70;;
19260;SDS011;9764;48.114;11.670;2023-05-23T07:19:11;4.53;;;4.13;;
19260;SDS011;9764;48.114;11.670;2023-05-23T07:21:46;4.25;;;3.85;;
19260;SDS011;9764;48.114;11.670;2023-05-23T07:24:16;3.90;;;3.60;;
19260;SDS011;9764;48.114;11.670;2023-05-23T07:26:46;4.00;;;3.70;;
19260;SDS011;9764;48.114;11.670;2023-05-23T07:29:16;4.38;;;3.97;;
19260;SDS011;9764;48.114;11.670;2023-05-23T07:31:46;4.50;;;4.10;;
19260;SDS011;9764;48.114;11.670;2023-05-23T07:34:15;4.65;;;4.18;;
19260;SDS011;9764;48.114;11.670;2023-05-23T07:36:56;4.32;;;3.92;;
19260;SDS011;9764;48.114;11.670;2023-05-23T07:39:29;4.13;;;3.83;;
19260;SDS011;9764;48.114;11.670;2023-05-23T07:42:00;4.10;;;3.80;;
19260;SDS011;9764;48.114;11.670;2023-05-23T07:44:30;4.18;;;3.88;;
19260;SDS011;9764;48.114;11.670;2023-05-23T07:46:58;4.40;;;4.10;;
19260;SDS011;9764;48.114;11.670;2023-05-23T07:49:27;4.07;;;3.70;;
19260;SDS011;9764;48.114;11.670;2023-05-23T07:51:56;4.57;;;4.18;;
19260;SDS011;9764;48.114;11.670;2023-05-23T07:54:25;4.38;;;3.75;;
19260;SDS011;9764;48.114;11.670;2023-05-23T07:56:57;4.90;;;4.50;;
19260;SDS011;9764;48.114;11.670;2023-05-23T07:59:25;4.15;;;3.75;;
19260;SDS011;9764;48.114;11.670;2023-05-23T08:15:14;4.55;;;4.15;;
19260;SDS011;9764;48.114;11.670;2023-05-23T08:17:48;4.97;;;4.57;;
19260;SDS011;9764;48.114;11.670;2023-05-23T08:20:16;4.85;;;4.45;;
19260;SDS011;9764;48.114;11.670;2023-05-23T08:22:45;4.55;;;4.15;;
19260;SDS011;9764;48.114;11.670;2023-05-23T08:25:13;4.72;;;4.32;;
19260;SDS011;9764;48.114;11.670;2023-05-23T08:27:41;4.93;;;4.40;;
19260;SDS011;9764;48.114;11.670;2023-05-23T08:30:26;4.85;;;4.45;;
19260;SDS011;9764;48.114;11.670;2023-05-23T08:32:58;4.72;;;4.32;;
19260;SDS011;9764;48.114;11.670;2023-05-23T08:35:30;4.20;;;3.85;;
19260;SDS011;9764;48.114;11.670;2023-05-23T08:38:03;4.65;;;4.25;;
19260;SDS011;9764;48.114;11.670;2023-05-23T08:40:35;4.88;;;4.47;;
19260;SDS011;9764;48.114;11.670;2023-05-23T08:43:09;4.65;;;4.25;;
19260;SDS011;9764;48.114;11.670;2023-05-23T08:45:39;5.15;;;4.72;;
19260;SDS011;9764;48.114;11.670;2023-05-23T08:48:08;5.07;;;4.68;;
19260;SDS011;9764;48.114;11.670;2023-05-23T08:50:42;4.88;;;4.47;;
19260;SDS011;9764;48.114;11.670;2023-05-23T08:53:16;4.97;;;4.50;;
19260;SDS011;9764;48.114;11.670;2023-05-23T08:55:51;5.55;;;5.05;;
19260;SDS011;9764;48.114;11.670;2023-05-23T08:58:25;4.90;;;4.50;;
19260;SDS011;9764;48.114;11.670;2023-05-23T09:00:57;4.43;;;4.05;;
19260;SDS011;9764;48.114;11.670;2023-05-23T09:03:26;4.90;;;4.38;;
19260;SDS011;9764;48.114;11.670;2023-05-23T09:06:03;5.00;;;4.57;;
19260;SDS011;9764;48.114;11.670;2023-05-23T09:08:33;5.45;;;4.95;;
19260;SDS011;9764;48.114;11.670;2023-05-23T09:11:02;5.13;;;4.63;;
19260;SDS011;9764;48.114;11.670;2023-05-23T09:13:35;5.22;;;4.55;;
19260;SDS011;9764;48.114;11.670;2023-05-23T09:16:09;4.38;;;4.03;;
19260;SDS011;9764;48.114;11.670;2023-05-23T09:18:48;5.05;;;4.60;;
19260;SDS011;9764;48.114;11.670;2023-05-23T09:21:19;4.97;;;4.57;;
19260;SDS011;9764;48.114;11.670;2023-05-23T09:24:03;5.07;;;4.57;;
19260;SDS011;9764;48.114;11.670;2023-05-23T09:26:32;4.68;;;4.28;;
19260;SDS011;9764;48.114;11.670;2023-05-23T09:33:38;5.38;;;4.88;;
19260;SDS011;9764;48.114;11.670;2023-05-23T09:36:07;5.28;;;4.75;;
19260;SDS011;9764;48.114;11.670;2023-05-23T09:38:37;5.18;;;4.68;;
19260;SDS011;9764;48.114;11.670;2023-05-23T09:41:06;5.35;;;4.88;;
19260;SDS011;9764;48.114;11.670;2023-05-23T09:43:37;5.28;;;4.78;;
19260;SDS011;9764;48.114;11.670;2023-05-23T09:46:07;5.18;;;4.78;;
19260;SDS011;9764;48.114;11.670;2023-05-23T09:48:38;5.45;;;5.05;;
19260;SDS011;9764;48.114;11.670;2023-05-23T09:51:07;5.15;;;4.65;;
19260;SDS011;9764;48.114;11.670;2023-05-23T09:53:36;5.78;;;5.28;;
19260;SDS011;9764;48.114;11.670;2023-05-23T09:56:04;5.63;;;5.13;;
19260;SDS011;9764;48.114;11.670;2023-05-23T09:58:37;5.82;;;5.30;;
19260;SDS011;9764;48.114;11.670;2023-05-23T10:01:06;5.05;;;4.53;;
19260;SDS011;9764;48.114;11.670;2023-05-23T10:03:39;5.55;;;4.95;;
19260;SDS011;9764;48.114;11.670;2023-05-23T10:06:16;5.43;;;4.93;;
19260;SDS011;9764;48.114;11.670;2023-05-23T10:08:51;5.03;;;4.63;;
19260;SDS011;9764;48.114;11.670;2023-05-23T10:14:30;5.50;;;5.00;;
19260;SDS011;9764;48.114;11.670;2023-05-23T10:17:09;5.30;;;4.90;;
19260;SDS011;9764;48.114;11.670;2023-05-23T10:19:46;5.65;;;5.15;;
19260;SDS011;9764;48.114;11.670;2023-05-23T10:22:20;5.47;;;5.00;;
19260;SDS011;9764;48.114;11.670;2023-05-23T10:24:49;5.20;;;4.80;;
19260;SDS011;9764;48.114;11.670;2023-05-23T10:27:18;4.90;;;4.50;;
19260;SDS011;9764;48.114;11.670;2023-05-23T10:29:46;4.88;;;4.47;;
19260;SDS011;9764;48.114;11.670;2023-05-23T10:32:15;5.40;;;4.90;;
19260;SDS011;9764;48.114;11.670;2023-05-23T10:34:54;4.97;;;4.57;;
19260;SDS011;9764;48.114;11.670;2023-05-23T10:37:28;4.93;;;4.53;;
19260;SDS011;9764;48.114;11.670;2023-05-23T10:40:03;5.75;;;5.25;;
19260;SDS011;9764;48.114;11.670;2023-05-23T10:42:41;5.28;;;4.82;;
19260;SDS011;9764;48.114;11.670;2023-05-23T10:45:16;5.03;;;4.57;;
19260;SDS011;9764;48.114;11.670;2023-05-23T10:47:46;5.50;;;4.97;;
19260;SDS011;9764;48.114;11.670;2023-05-23T10:50:29;5.50;;;5.00;;
19260;SDS011;9764;48.114;11.670;2023-05-23T10:52:59;5.35;;;4.93;;
19260;SDS011;9764;48.114;11.670;2023-05-23T10:55:33;5.40;;;4.90;;
19260;SDS011;9764;48.114;11.670;2023-05-23T11:05:27;5.43;;;4.78;;
19260;SDS011;9764;48.114;11.670;2023-05-23T11:08:07;5.53;;;5.03;;
19260;SDS011;9764;48.114;11.670;2023-05-23T11:16:25;5.10;;;4.70;;
19260;SDS011;9764;48.114;11.670;2023-05-23T11:21:53;4.78;;;4.38;;
19260;SDS011;9764;48.114;11.670;2023-05-23T11:24:22;5.50;;;5.00;;
19260;SDS011;9764;48.114;11.670;2023-05-23T11:26:51;5.32;;;4.88;;
19260;SDS011;9764;48.114;11.670;2023-05-23T11:29:20;5.10;;;4.70;;
19260;SDS011;9764;48.114;11.670;2023-05-23T11:31:48;5.85;;;4.90;;
19260;SDS011;9764;48.114;11.670;2023-05-23T11:34:17;5.03;;;4.63;;
19260;SDS011;9764;48.114;11.670;2023-05-23T11:36:45;5.38;;;4.88;;
19260;SDS011;9764;48.114;11.670;2023-05-23T11:39:15;4.90;;;4.50;;
19260;SDS011;9764;48.114;11.670;2023-05-23T11:41:49;4.97;;;4.55;;
19260;SDS011;9764;48.114;11.670;2023-05-23T11:44:25;4.82;;;4.43;;
19260;SDS011;9764;48.114;11.670;2023-05-23T11:47:00;5.32;;;4.93;;
19260;SDS011;9764;48.114;11.670;2023-05-23T11:49:29;4.95;;;4.55;;
19260;SDS011;9764;48.114;11.670;2023-05-23T11:51:58;5.13;;;4.63;;
19260;SDS011;9764;48.114;11.670;2023-05-23T11:54:29;4.90;;;4.50;;
19260;SDS011;9764;48.114;11.670;2023-05-23T11:56:58;5.28;;;4.88;;
19260;SDS011;9764;48.114;11.670;2023-05-23T11:59:26;5.07;;;4.68;;
19260;SDS011;9764;48.114;11.670;2023-05-23T12:01:54;4.80;;;4.40;;
19260;SDS011;9764;48.114;11.670;2023-05-23T12:04:24;4.85;;;4.45;;
19260;SDS011;9764;48.114;11.670;2023-05-23T12:06:53;5.20;;;4.70;;
19260;SDS011;9764;48.114;11.670;2023-05-23T12:09:21;4.75;;;4.35;;
19260;SDS011;9764;48.114;11.670;2023-05-23T12:11:52;4.82;;;4.40;;
19260;SDS011;9764;48.114;11.670;2023-05-23T12:14:20;5.28;;;4.78;;
19260;SDS011;9764;48.114;11.670;2023-05-23T12:16:50;5.00;;;4.60;;
19260;SDS011;9764;48.114;11.670;2023-05-23T12:19:19;5.00;;;4.60;;
19260;SDS011;9764;48.114;11.670;2023-05-23T12:21:48;5.10;;;4.70;;
19260;SDS011;9764;48.114;11.670;2023-05-23T12:24:17;4.70;;;4.30;;
19260;SDS011;9764;48.114;11.670;2023-05-23T12:26:47;4.80;;;4.40;;
19260;SDS011;9764;48.114;11.670;2023-05-23T12:29:26;4.30;;;4.00;;
19260;SDS011;9764;48.114;11.670;2023-05-23T12:32:00;4.88;;;4.47;;
19260;SDS011;9764;48.114;11.670;2023-05-23T12:34:30;4.45;;;4.05;;
19260;SDS011;9764;48.114;11.670;2023-05-23T12:37:00;5.05;;;4.55;;
19260;SDS011;9764;48.114;11.670;2023-05-23T12:39:33;4.60;;;4.20;;
19260;SDS011;9764;48.114;11.670;2023-05-23T12:42:06;5.05;;;4.60;;
19260;SDS011;9764;48.114;11.670;2023-05-23T12:44:39;5.15;;;4.68;;
19260;SDS011;9764;48.114;11.670;2023-05-23T12:47:08;4.93;;;4.53;;
19260;SDS011;9764;48.114;11.670;2023-05-23T12:49:37;4.60;;;4.20;;
19260;SDS011;9764;48.114;11.670;2023-05-23T12:52:05;5.03;;;4.63;;
19260;SDS011;9764;48.114;11.670;2023-05-23T12:54:34;4.60;;;4.20;;
19260;SDS011;9764;48.114;11.670;2023-05-23T12:57:02;4.40;;;4.00;;
19260;SDS011;9764;48.114;11.670;2023-05-23T12:59:31;4.72;;;4.32;;
19260;SDS011;9764;48.114;11.670;2023-05-23T13:02:01;4.50;;;4.13;;
19260;SDS011;9764;48.114;11.670;2023-05-23T13:04:29;4.78;;;4.38;;
19260;SDS011;9764;48.114;11.670;2023-05-23T13:06:58;4.78;;;4.38;;
19260;SDS011;9764;48.114;11.670;2023-05-23T13:09:26;4.38;;;4.07;;
19260;SDS011;9764;48.114;11.670;2023-05-23T13:11:55;5.05;;;4.65;;
19260;SDS011;9764;48.114;11.670;2023-05-23T13:14:24;4.50;;;4.10;;
19260;SDS011;9764;48.114;11.670;2023-05-23T13:16:52;4.85;;;4.45;;
19260;SDS011;9764;48.114;11.670;2023-05-23T13:19:22;4.20;;;3.90;;
19260;SDS011;9764;48.114;11.670;2023-05-23T13:21:51;4.78;;;4.38;;
19260;SDS011;9764;48.114;11.670;2023-05-23T13:24:19;4.35;;;4.05;;
19260;SDS011;9764;48.114;11.670;2023-05-23T13:26:48;4.95;;;4.45;;
19260;SDS011;9764;48.114;11.670;2023-05-23T13:29:16;5.25;;;4.85;;
19260;SDS011;9764;48.114;11.670;2023-05-23T13:31:45;4.80;;;4.40;;
19260;SDS011;9764;48.114;11.670;2023-05-23T13:34:14;4.38;;;4.07;;
19260;SDS011;9764;48.114;11.670;2023-05-23T13:36:44;4.75;;;4.35;;
19260;SDS011;9764;48.114;11.670;2023-05-23T13:39:12;4.53;;;4.15;;
19260;SDS011;9764;48.114;11.670;2023-05-23T13:41:43;4.45;;;4.05;;
19260;SDS011;9764;48.114;11.670;2023-05-23T13:44:11;4.25;;;3.95;;
19260;SDS011;9764;48.114;11.670;2023-05-23T13:46:39;4.40;;;4.10;;
19260;SDS011;9764;48.114;11.670;2023-05-23T13:49:09;4.20;;;3.90;;
19260;SDS011;9764;48.114;11.670;2023-05-23T13:51:37;4.40;;;4.10;;
19260;SDS011;9764;48.114;11.670;2023-05-23T13:54:08;4.20;;;3.90;;
19260;SDS011;9764;48.114;11.670;2023-05-23T13:56:37;4.22;;;3.92;;
19260;SDS011;9764;48.114;11.670;2023-05-23T13:59:06;4.63;;;4.22;;
19260;SDS011;9764;48.114;11.670;2023-05-23T14:01:34;4.78;;;4.38;;
19260;SDS011;9764;48.114;11.670;2023-05-23T14:04:02;4.50;;;4.20;;
19260;SDS011;9764;48.114;11.670;2023-05-23T14:06:32;4.20;;;3.90;;
19260;SDS011;9764;48.114;11.670;2023-05-23T14:09:02;4.55;;;4.15;;
19260;SDS011;9764;48.114;11.670;2023-05-23T14:11:32;4.25;;;3.95;;
19260;SDS011;9764;48.114;11.670;2023-05-23T14:14:00;4.65;;;4.25;;
19260;SDS011;9764;48.114;11.670;2023-05-23T14:16:28;4.10;;;3.72;;
19260;SDS011;9764;48.114;11.670;2023-05-23T14:18:57;4.78;;;4.38;;
19260;SDS011;9764;48.114;11.670;2023-05-23T14:21:26;4.10;;;3.80;;
19260;SDS011;9764;48.114;11.670;2023-05-23T14:23:54;4.15;;;3.85;;
19260;SDS011;9764;48.114;11.670;2023-05-23T14:26:23;4.10;;;3.80;;
19260;SDS011;9764;48.114;11.670;2023-05-23T14:28:53;4.47;;;4.15;;
19260;SDS011;9764;48.114;11.670;2023-05-23T14:31:21;4.15;;;3.85;;
19260;SDS011;9764;48.114;11.670;2023-05-23T14:33:50;4.55;;;4.20;;
19260;SDS011;9764;48.114;11.670;2023-05-23T14:36:18;4.00;;;3.70;;
19260;SDS011;9764;48.114;11.670;2023-05-23T14:38:46;3.92;;;3.58;;
19260;SDS011;9764;48.114;11.670;2023-05-23T14:41:16;4.18;;;3.83;;
19260;SDS011;9764;48.114;11.670;2023-05-23T14:43:45;3.78;;;3.45;;
19260;SDS011;9764;48.114;11.670;2023-05-23T14:46:15;4.70;;;4.20;;
19260;SDS011;9764;48.114;11.670;2023-05-23T14:48:44;3.97;;;3.67;;
19260;SDS011;9764;48.114;11.670;2023-05-23T14:51:13;4.13;;;3.83;;
19260;SDS011;9764;48.114;11.670;2023-05-23T14:54:00;3.50;;;3.20;;
19260;SDS011;9764;48.114;11.670;2023-05-23T14:56:28;3.92;;;3.63;;
19260;SDS011;9764;48.114;11.670;2023-05-23T14:58:57;3.88;;;3.58;;
19260;SDS011;9764;48.114;11.670;2023-05-23T15:01:27;3.97;;;3.67;;
19260;SDS011;9764;48.114;11.670;2023-05-23T15:03:56;3.60;;;3.30;;
19260;SDS011;9764;48.114;11.670;2023-05-23T15:06:27;3.85;;;3.55;;
19260;SDS011;9764;48.114;11.670;2023-05-23T15:08:55;4.00;;;3.47;;
19260;SDS011;9764;48.114;11.670;2023-05-23T15:11:23;4.28;;;3.88;;
19260;SDS011;9764;48.114;11.670;2023-05-23T15:13:53;3.40;;;3.20;;
19260;SDS011;9764;48.114;11.670;2023-05-23T15:16:22;3.70;;;3.40;;
19260;SDS011;9764;48.114;11.670;2023-05-23T15:18:51;3.65;;;3.35;;
19260;SDS011;9764;48.114;11.670;2023-05-23T15:21:20;3.25;;;3.05;;
19260;SDS011;9764;48.114;11.670;2023-05-23T15:23:48;3.80;;;3.50;;
19260;SDS011;9764;48.114;11.670;2023-05-23T15:26:16;3.80;;;3.50;;
19260;SDS011;9764;48.114;11.670;2023-05-23T15:28:45;3.60;;;3.35;;
19260;SDS011;9764;48.114;11.670;2023-05-23T15:31:14;3.22;;;3.00;;
19260;SDS011;9764;48.114;11.670;2023-05-23T15:33:42;3.45;;;3.20;;
19260;SDS011;9764;48.114;11.670;2023-05-23T15:36:11;3.70;;;3.40;;
19260;SDS011;9764;48.114;11.670;2023-05-23T15:38:40;3.45;;;3.15;;
19260;SDS011;9764;48.114;11.670;2023-05-23T15:41:09;3.95;;;3.65;;
19260;SDS011;9764;48.114;11.670;2023-05-23T15:43:37;3.35;;;3.08;;